sensor_id;sensor_type;location;lat;lon;timestamp;P1;durP1;ratioP1;P2;durP2;ratioP2
45033;SDS011;30771;47.988;-4.186;2024-02-21T00:00:08;13.82;;;2.80;;
45033;SDS011;30771;47.988;-4.186;2024-02-21T00:02:37;11.32;;;2.70;;
45033;SDS011;30771;47.988;-4.186;2024-02-21T00:05:04;16.75;;;2.28;;
45033;SDS011;30771;47.988;-4.186;2024-02-21T00:07:31;15.38;;;2.20;;
45033;SDS011;30771;47.988;-4.186;2024-02-21T00:09:58;13.15;;;2.13;;
45033;SDS011;30771;47.988;-4.186;2024-02-21T00:12:24;16.48;;;2.10;;
45033;SDS011;30771;47.988;-4.186;2024-02-21T00:14:51;15.07;;;2.00;;
45033;SDS011;30771;47.988;-4.186;2024-02-21T00:17:18;15.20;;;2.20;;
45033;SDS011;30771;47.988;-4.186;2024-02-21T00:19:45;19.30;;;3.13;;
45033;SDS011;30771;47.988;-4.186;2024-02-21T00:22:11;12.15;;;2.38;;
45033;SDS011;30771;47.988;-4.186;2024-02-21T00:24:38;12.98;;;2.30;;
45033;SDS011;30771;47.988;-4.186;2024-02-21T00:27:05;13.98;;;3.08;;
45033;SDS011;30771;47.988;-4.186;2024-02-21T00:29:32;13.35;;;3.45;;
45033;SDS011;30771;47.988;-4.186;2024-02-21T00:31:58;15.35;;;3.13;;
45033;SDS011;30771;47.988;-4.186;2024-02-21T00:34:25;14.77;;;3.28;;
45033;SDS011;30771;47.988;-4.186;2024-02-21T00:36:52;14.57;;;2.65;;
45033;SDS011;30771;47.988;-4.186;2024-02-21T00:39:19;12.88;;;2.30;;
45033;SDS011;30771;47.988;-4.186;2024-02-21T00:41:45;13.95;;;2.08;;
45033;SDS011;30771;47.988;-4.186;2024-02-21T00:44:12;13.80;;;2.38;;
45033;SDS011;30771;47.988;-4.186;2024-02-21T00:46:39;14.32;;;2.45;;
45033;SDS011;30771;47.988;-4.186;2024-02-21T00:49:05;11.85;;;1.85;;
45033;SDS011;30771;47.988;-4.186;2024-02-21T00:51:33;9.15;;;2.28;;
45033;SDS011;30771;47.988;-4.186;2024-02-21T00:54:00;16.77;;;2.95;;
45033;SDS011;30771;47.988;-4.186;2024-02-21T00:56:27;12.70;;;1.88;;
45033;SDS011;30771;47.988;-4.186;2024-02-21T00:58:54;13.98;;;2.10;;
45033;SDS011;30771;47.988;-4.186;2024-02-21T01:01:24;13.18;;;2.90;;
45033;SDS011;30771;47.988;-4.186;2024-02-21T01:03:52;18.33;;;2.78;;
45033;SDS011;30771;47.988;-4.186;2024-02-21T01:06:20;13.50;;;2.75;;
45033;SDS011;30771;47.988;-4.186;2024-02-21T01:08:47;10.30;;;2.10;;
45033;SDS011;30771;47.988;-4.186;2024-02-21T01:11:14;16.40;;;2.80;;
45033;SDS011;30771;47.988;-4.186;2024-02-21T01:13:42;12.10;;;2.67;;
45033;SDS011;30771;47.988;-4.186;2024-02-21T01:16:09;15.07;;;2.17;;
45033;SDS011;30771;47.988;-4.186;2024-02-21T01:18:39;15.32;;;2.42;;
45033;SDS011;30771;47.988;-4.186;2024-02-21T01:21:06;13.88;;;2.20;;
45033;SDS011;30771;47.988;-4.186;2024-02-21T01:23:34;18.38;;;1.90;;
45033;SDS011;30771;47.988;-4.186;2024-02-21T01:26:02;22.85;;;2.88;;
45033;SDS011;30771;47.988;-4.186;2024-02-21T01:28:30;15.60;;;3.05;;
45033;SDS011;30771;47.988;-4.186;2024-02-21T01:30:57;12.00;;;1.92;;
45033;SDS011;30771;47.988;-4.186;2024-02-21T01:33:23;16.17;;;2.88;;
45033;SDS011;30771;47.988;-4.186;2024-02-21T01:35:50;12.88;;;2.47;;
45033;SDS011;30771;47.988;-4.186;2024-02-21T01:38:17;18.60;;;3.40;;
45033;SDS011;30771;47.988;-4.186;2024-02-21T01:40:44;18.02;;;2.55;;
45033;SDS011;30771;47.988;-4.186;2024-02-21T01:43:17;13.95;;;2.33;;
45033;SDS011;30771;47.988;-4.186;2024-02-21T01:45:55;18.17;;;2.45;;
45033;SDS011;30771;47.988;-4.186;2024-02-21T01:48:22;17.05;;;2.20;;
45033;SDS011;30771;47.988;-4.186;2024-02-21T01:50:50;11.40;;;2.42;;
45033;SDS011;30771;47.988;-4.186;2024-02-21T01:53:22;13.60;;;2.17;;
45033;SDS011;30771;47.988;-4.186;2024-02-21T01:55:51;12.55;;;2.30;;
45033;SDS011;30771;47.988;-4.186;2024-02-21T01:58:19;10.85;;;2.72;;
45033;SDS011;30771;47.988;-4.186;2024-02-21T02:00:47;16.40;;;2.53;;
45033;SDS011;30771;47.988;-4.186;2024-02-21T02:03:14;18.10;;;2.92;;
45033;SDS011;30771;47.988;-4.186;2024-02-21T02:05:47;17.70;;;2.55;;
45033;SDS011;30771;47.988;-4.186;2024-02-21T02:08:15;18.67;;;2.70;;
45033;SDS011;30771;47.988;-4.186;2024-02-21T02:10:43;15.48;;;2.83;;
45033;SDS011;30771;47.988;-4.186;2024-02-21T02:13:11;13.60;;;1.90;;
45033;SDS011;30771;47.988;-4.186;2024-02-21T02:15:47;18.33;;;2.15;;
45033;SDS011;30771;47.988;-4.186;2024-02-21T02:18:16;10.52;;;2.00;;
45033;SDS011;30771;47.988;-4.186;2024-02-21T02:20:44;15.15;;;2.55;;
45033;SDS011;30771;47.988;-4.186;2024-02-21T02:23:28;21.27;;;2.20;;
45033;SDS011;30771;47.988;-4.186;2024-02-21T02:25:55;19.23;;;2.78;;
45033;SDS011;30771;47.988;-4.186;2024-02-21T02:28:23;16.50;;;2.17;;
45033;SDS011;30771;47.988;-4.186;2024-02-21T02:30:50;16.67;;;2.30;;
45033;SDS011;30771;47.988;-4.186;2024-02-21T02:33:17;17.75;;;2.85;;
45033;SDS011;30771;47.988;-4.186;2024-02-21T02:35:44;19.30;;;2.22;;
45033;SDS011;30771;47.988;-4.186;2024-02-21T02:38:12;16.50;;;2.28;;
45033;SDS011;30771;47.988;-4.186;2024-02-21T02:40:40;9.10;;;1.80;;
45033;SDS011;30771;47.988;-4.186;2024-02-21T02:43:08;10.82;;;2.15;;
45033;SDS011;30771;47.988;-4.186;2024-02-21T02:45:35;11.63;;;1.80;;
45033;SDS011;30771;47.988;-4.186;2024-02-21T02:48:02;13.18;;;1.90;;
45033;SDS011;30771;47.988;-4.186;2024-02-21T02:50:29;14.73;;;2.42;;
45033;SDS011;30771;47.988;-4.186;2024-02-21T02:52:56;10.32;;;1.88;;
45033;SDS011;30771;47.988;-4.186;2024-02-21T02:55:23;13.63;;;1.90;;
45033;SDS011;30771;47.988;-4.186;2024-02-21T02:57:50;12.10;;;1.48;;
45033;SDS011;30771;47.988;-4.186;2024-02-21T03:00:17;9.70;;;1.92;;
45033;SDS011;30771;47.988;-4.186;2024-02-21T03:02:45;16.15;;;1.75;;
45033;SDS011;30771;47.988;-4.186;2024-02-21T03:05:16;9.75;;;1.92;;
45033;SDS011;30771;47.988;-4.186;2024-02-21T03:07:44;13.38;;;1.88;;
45033;SDS011;30771;47.988;-4.186;2024-02-21T03:10:12;16.58;;;2.25;;
45033;SDS011;30771;47.988;-4.186;2024-02-21T03:12:40;17.33;;;2.20;;
45033;SDS011;30771;47.988;-4.186;2024-02-21T03:15:07;13.52;;;2.65;;
45033;SDS011;30771;47.988;-4.186;2024-02-21T03:17:34;22.80;;;2.90;;
45033;SDS011;30771;47.988;-4.186;2024-02-21T03:20:01;18.83;;;3.17;;
45033;SDS011;30771;47.988;-4.186;2024-02-21T03:22:39;20.07;;;2.80;;
45033;SDS011;30771;47.988;-4.186;2024-02-21T03:25:07;18.93;;;3.17;;
45033;SDS011;30771;47.988;-4.186;2024-02-21T03:27:34;16.63;;;3.60;;
45033;SDS011;30771;47.988;-4.186;2024-02-21T03:30:01;15.45;;;3.38;;
45033;SDS011;30771;47.988;-4.186;2024-02-21T03:32:28;16.42;;;2.80;;
45033;SDS011;30771;47.988;-4.186;2024-02-21T03:34:56;26.45;;;2.92;;
45033;SDS011;30771;47.988;-4.186;2024-02-21T03:37:23;20.30;;;2.97;;
45033;SDS011;30771;47.988;-4.186;2024-02-21T03:39:50;20.67;;;2.97;;
45033;SDS011;30771;47.988;-4.186;2024-02-21T03:42:16;16.85;;;3.15;;
45033;SDS011;30771;47.988;-4.186;2024-02-21T03:44:43;17.35;;;2.15;;
45033;SDS011;30771;47.988;-4.186;2024-02-21T03:47:10;20.60;;;2.00;;
45033;SDS011;30771;47.988;-4.186;2024-02-21T03:49:38;17.20;;;2.93;;
45033;SDS011;30771;47.988;-4.186;2024-02-21T03:52:05;20.92;;;2.63;;
45033;SDS011;30771;47.988;-4.186;2024-02-21T03:54:32;14.43;;;1.70;;
45033;SDS011;30771;47.988;-4.186;2024-02-21T03:56:58;20.17;;;2.65;;
45033;SDS011;30771;47.988;-4.186;2024-02-21T03:59:25;15.48;;;2.05;;
45033;SDS011;30771;47.988;-4.186;2024-02-21T04:01:52;12.60;;;2.53;;
45033;SDS011;30771;47.988;-4.186;2024-02-21T04:04:20;13.57;;;1.95;;
45033;SDS011;30771;47.988;-4.186;2024-02-21T04:06:47;15.70;;;2.42;;
45033;SDS011;30771;47.988;-4.186;2024-02-21T04:09:17;13.70;;;2.10;;
45033;SDS011;30771;47.988;-4.186;2024-02-21T04:11:44;13.00;;;2.00;;
45033;SDS011;30771;47.988;-4.186;2024-02-21T04:14:11;20.67;;;2.53;;
45033;SDS011;30771;47.988;-4.186;2024-02-21T04:16:38;16.98;;;2.53;;
45033;SDS011;30771;47.988;-4.186;2024-02-21T04:19:06;11.38;;;2.08;;
45033;SDS011;30771;47.988;-4.186;2024-02-21T04:21:34;18.60;;;2.60;;
45033;SDS011;30771;47.988;-4.186;2024-02-21T04:26:32;17.95;;;2.15;;
45033;SDS011;30771;47.988;-4.186;2024-02-21T04:29:00;15.90;;;2.58;;
45033;SDS011;30771;47.988;-4.186;2024-02-21T04:31:27;23.10;;;2.38;;
45033;SDS011;30771;47.988;-4.186;2024-02-21T04:33:54;17.00;;;3.10;;
45033;SDS011;30771;47.988;-4.186;2024-02-21T04:36:20;18.80;;;2.70;;
45033;SDS011;30771;47.988;-4.186;2024-02-21T04:38:47;18.55;;;2.10;;
45033;SDS011;30771;47.988;-4.186;2024-02-21T04:41:14;22.70;;;3.05;;
45033;SDS011;30771;47.988;-4.186;2024-02-21T04:43:41;18.63;;;2.28;;
45033;SDS011;30771;47.988;-4.186;2024-02-21T04:46:08;18.02;;;2.70;;
45033;SDS011;30771;47.988;-4.186;2024-02-21T04:48:34;16.52;;;3.22;;
45033;SDS011;30771;47.988;-4.186;2024-02-21T04:51:01;21.23;;;2.58;;
45033;SDS011;30771;47.988;-4.186;2024-02-21T04:53:28;17.75;;;2.70;;
45033;SDS011;30771;47.988;-4.186;2024-02-21T04:55:54;19.55;;;3.30;;
45033;SDS011;30771;47.988;-4.186;2024-02-21T04:58:21;17.92;;;2.58;;
45033;SDS011;30771;47.988;-4.186;2024-02-21T05:00:48;21.77;;;2.85;;
45033;SDS011;30771;47.988;-4.186;2024-02-21T05:03:15;21.23;;;2.85;;
45033;SDS011;30771;47.988;-4.186;2024-02-21T05:05:41;18.58;;;2.70;;
45033;SDS011;30771;47.988;-4.186;2024-02-21T05:08:09;21.60;;;2.65;;
45033;SDS011;30771;47.988;-4.186;2024-02-21T05:10:36;21.85;;;3.25;;
45033;SDS011;30771;47.988;-4.186;2024-02-21T05:13:03;27.10;;;3.10;;
45033;SDS011;30771;47.988;-4.186;2024-02-21T05:15:31;26.27;;;3.45;;
45033;SDS011;30771;47.988;-4.186;2024-02-21T05:17:58;15.52;;;3.10;;
45033;SDS011;30771;47.988;-4.186;2024-02-21T05:20:24;22.63;;;4.00;;
45033;SDS011;30771;47.988;-4.186;2024-02-21T05:22:53;26.58;;;3.95;;
45033;SDS011;30771;47.988;-4.186;2024-02-21T05:25:19;28.80;;;4.80;;
45033;SDS011;30771;47.988;-4.186;2024-02-21T05:27:46;25.20;;;4.47;;
45033;SDS011;30771;47.988;-4.186;2024-02-21T05:30:14;33.70;;;4.45;;
45033;SDS011;30771;47.988;-4.186;2024-02-21T05:32:41;29.42;;;4.35;;
45033;SDS011;30771;47.988;-4.186;2024-02-21T05:35:08;34.33;;;4.35;;
45033;SDS011;30771;47.988;-4.186;2024-02-21T05:37:35;22.48;;;4.38;;
45033;SDS011;30771;47.988;-4.186;2024-02-21T05:40:02;33.92;;;4.03;;
45033;SDS011;30771;47.988;-4.186;2024-02-21T05:42:29;36.90;;;4.70;;
45033;SDS011;30771;47.988;-4.186;2024-02-21T05:44:55;29.77;;;4.75;;
45033;SDS011;30771;47.988;-4.186;2024-02-21T05:47:22;39.40;;;5.07;;
45033;SDS011;30771;47.988;-4.186;2024-02-21T05:49:49;38.92;;;4.82;;
45033;SDS011;30771;47.988;-4.186;2024-02-21T05:52:15;31.23;;;4.80;;
45033;SDS011;30771;47.988;-4.186;2024-02-21T05:54:42;40.38;;;5.68;;
45033;SDS011;30771;47.988;-4.186;2024-02-21T05:57:09;30.70;;;4.68;;
45033;SDS011;30771;47.988;-4.186;2024-02-21T05:59:37;30.58;;;4.72;;
45033;SDS011;30771;47.988;-4.186;2024-02-21T06:02:06;25.10;;;4.05;;
45033;SDS011;30771;47.988;-4.186;2024-02-21T06:04:33;23.73;;;4.45;;
45033;SDS011;30771;47.988;-4.186;2024-02-21T06:07:00;27.98;;;4.30;;
45033;SDS011;30771;47.988;-4.186;2024-02-21T06:09:28;32.33;;;5.03;;
45033;SDS011;30771;47.988;-4.186;2024-02-21T06:11:55;21.38;;;3.78;;
45033;SDS011;30771;47.988;-4.186;2024-02-21T06:14:22;27.15;;;3.97;;
45033;SDS011;30771;47.988;-4.186;2024-02-21T06:16:48;19.48;;;3.88;;
45033;SDS011;30771;47.988;-4.186;2024-02-21T06:19:15;24.58;;;3.95;;
45033;SDS011;30771;47.988;-4.186;2024-02-21T06:21:42;20.38;;;3.78;;
45033;SDS011;30771;47.988;-4.186;2024-02-21T06:24:09;24.10;;;3.45;;
45033;SDS011;30771;47.988;-4.186;2024-02-21T06:26:36;20.45;;;4.35;;
45033;SDS011;30771;47.988;-4.186;2024-02-21T06:29:02;21.98;;;3.70;;
45033;SDS011;30771;47.988;-4.186;2024-02-21T06:31:29;25.48;;;4.53;;
45033;SDS011;30771;47.988;-4.186;2024-02-21T06:33:58;13.85;;;2.90;;
45033;SDS011;30771;47.988;-4.186;2024-02-21T06:36:25;22.92;;;3.78;;
45033;SDS011;30771;47.988;-4.186;2024-02-21T06:38:52;22.58;;;4.75;;
45033;SDS011;30771;47.988;-4.186;2024-02-21T06:41:19;18.88;;;3.78;;
45033;SDS011;30771;47.988;-4.186;2024-02-21T06:43:46;22.00;;;3.88;;
45033;SDS011;30771;47.988;-4.186;2024-02-21T06:46:25;17.45;;;2.92;;
45033;SDS011;30771;47.988;-4.186;2024-02-21T06:48:53;27.08;;;4.05;;
45033;SDS011;30771;47.988;-4.186;2024-02-21T06:51:20;15.80;;;3.30;;
45033;SDS011;30771;47.988;-4.186;2024-02-21T06:53:46;21.73;;;3.33;;
45033;SDS011;30771;47.988;-4.186;2024-02-21T06:56:13;24.13;;;3.33;;
45033;SDS011;30771;47.988;-4.186;2024-02-21T06:58:40;17.60;;;3.53;;
45033;SDS011;30771;47.988;-4.186;2024-02-21T07:01:07;26.38;;;4.30;;
45033;SDS011;30771;47.988;-4.186;2024-02-21T07:03:34;24.63;;;3.58;;
45033;SDS011;30771;47.988;-4.186;2024-02-21T07:06:01;15.00;;;3.85;;
45033;SDS011;30771;47.988;-4.186;2024-02-21T07:08:28;19.20;;;3.20;;
45033;SDS011;30771;47.988;-4.186;2024-02-21T07:10:55;25.25;;;10.10;;
45033;SDS011;30771;47.988;-4.186;2024-02-21T07:13:22;27.65;;;10.07;;
45033;SDS011;30771;47.988;-4.186;2024-02-21T07:15:49;43.65;;;22.10;;
45033;SDS011;30771;47.988;-4.186;2024-02-21T07:18:16;53.88;;;22.80;;
45033;SDS011;30771;47.988;-4.186;2024-02-21T07:20:43;71.45;;;34.08;;
45033;SDS011;30771;47.988;-4.186;2024-02-21T07:23:10;35.83;;;15.82;;
45033;SDS011;30771;47.988;-4.186;2024-02-21T07:25:36;22.77;;;6.13;;
45033;SDS011;30771;47.988;-4.186;2024-02-21T07:28:03;21.45;;;4.50;;
45033;SDS011;30771;47.988;-4.186;2024-02-21T07:30:30;24.08;;;4.75;;
45033;SDS011;30771;47.988;-4.186;2024-02-21T07:32:57;22.85;;;7.25;;
45033;SDS011;30771;47.988;-4.186;2024-02-21T07:35:24;25.60;;;13.25;;
45033;SDS011;30771;47.988;-4.186;2024-02-21T07:37:51;25.02;;;7.82;;
45033;SDS011;30771;47.988;-4.186;2024-02-21T07:40:18;24.73;;;4.13;;
45033;SDS011;30771;47.988;-4.186;2024-02-21T07:42:45;20.48;;;6.00;;
45033;SDS011;30771;47.988;-4.186;2024-02-21T07:45:17;18.17;;;4.30;;
45033;SDS011;30771;47.988;-4.186;2024-02-21T07:47:45;15.98;;;4.47;;
45033;SDS011;30771;47.988;-4.186;2024-02-21T07:50:12;18.40;;;4.63;;
45033;SDS011;30771;47.988;-4.186;2024-02-21T07:52:39;19.10;;;4.15;;
45033;SDS011;30771;47.988;-4.186;2024-02-21T07:55:06;20.00;;;3.63;;
45033;SDS011;30771;47.988;-4.186;2024-02-21T07:57:33;25.27;;;4.60;;
45033;SDS011;30771;47.988;-4.186;2024-02-21T07:59:59;26.50;;;4.05;;
45033;SDS011;30771;47.988;-4.186;2024-02-21T08:02:26;17.33;;;3.88;;
45033;SDS011;30771;47.988;-4.186;2024-02-21T08:04:53;18.58;;;5.45;;
45033;SDS011;30771;47.988;-4.186;2024-02-21T08:07:20;25.98;;;4.30;;
45033;SDS011;30771;47.988;-4.186;2024-02-21T08:09:46;21.33;;;5.30;;
45033;SDS011;30771;47.988;-4.186;2024-02-21T08:12:13;18.20;;;4.38;;
45033;SDS011;30771;47.988;-4.186;2024-02-21T08:14:40;15.13;;;4.22;;
45033;SDS011;30771;47.988;-4.186;2024-02-21T08:17:07;21.17;;;4.43;;
45033;SDS011;30771;47.988;-4.186;2024-02-21T08:19:34;17.02;;;4.40;;
45033;SDS011;30771;47.988;-4.186;2024-02-21T08:22:00;35.70;;;18.55;;
45033;SDS011;30771;47.988;-4.186;2024-02-21T08:24:27;19.42;;;5.32;;
45033;SDS011;30771;47.988;-4.186;2024-02-21T08:26:54;20.08;;;4.53;;
45033;SDS011;30771;47.988;-4.186;2024-02-21T08:29:20;23.15;;;5.80;;
45033;SDS011;30771;47.988;-4.186;2024-02-21T08:31:48;21.73;;;6.68;;
45033;SDS011;30771;47.988;-4.186;2024-02-21T08:34:15;17.17;;;5.93;;
45033;SDS011;30771;47.988;-4.186;2024-02-21T08:36:42;22.20;;;5.90;;
45033;SDS011;30771;47.988;-4.186;2024-02-21T08:39:09;21.38;;;9.15;;
45033;SDS011;30771;47.988;-4.186;2024-02-21T08:41:36;40.85;;;18.38;;
45033;SDS011;30771;47.988;-4.186;2024-02-21T08:44:25;24.42;;;8.30;;
45033;SDS011;30771;47.988;-4.186;2024-02-21T08:46:54;22.27;;;6.40;;
45033;SDS011;30771;47.988;-4.186;2024-02-21T08:49:22;18.92;;;6.65;;
45033;SDS011;30771;47.988;-4.186;2024-02-21T08:51:49;22.63;;;5.93;;
45033;SDS011;30771;47.988;-4.186;2024-02-21T08:54:16;16.38;;;4.30;;
45033;SDS011;30771;47.988;-4.186;2024-02-21T08:56:43;18.40;;;3.90;;
45033;SDS011;30771;47.988;-4.186;2024-02-21T08:59:10;16.00;;;4.95;;
45033;SDS011;30771;47.988;-4.186;2024-02-21T09:01:37;18.73;;;4.75;;
45033;SDS011;30771;47.988;-4.186;2024-02-21T09:04:04;13.63;;;3.50;;
45033;SDS011;30771;47.988;-4.186;2024-02-21T09:06:31;17.90;;;4.35;;
45033;SDS011;30771;47.988;-4.186;2024-02-21T09:09:00;25.63;;;5.40;;
45033;SDS011;30771;47.988;-4.186;2024-02-21T09:11:27;18.00;;;4.35;;
45033;SDS011;30771;47.988;-4.186;2024-02-21T09:13:54;14.43;;;4.30;;
45033;SDS011;30771;47.988;-4.186;2024-02-21T09:16:21;22.25;;;5.07;;
45033;SDS011;30771;47.988;-4.186;2024-02-21T09:18:50;19.15;;;6.03;;
45033;SDS011;30771;47.988;-4.186;2024-02-21T09:21:18;21.38;;;5.80;;
45033;SDS011;30771;47.988;-4.186;2024-02-21T09:23:45;17.92;;;5.63;;
45033;SDS011;30771;47.988;-4.186;2024-02-21T09:26:12;23.20;;;5.53;;
45033;SDS011;30771;47.988;-4.186;2024-02-21T09:28:43;26.58;;;6.13;;
45033;SDS011;30771;47.988;-4.186;2024-02-21T09:31:13;24.48;;;6.10;;
45033;SDS011;30771;47.988;-4.186;2024-02-21T09:33:40;25.63;;;5.85;;
45033;SDS011;30771;47.988;-4.186;2024-02-21T09:36:08;20.20;;;6.70;;
45033;SDS011;30771;47.988;-4.186;2024-02-21T09:38:34;28.95;;;6.40;;
45033;SDS011;30771;47.988;-4.186;2024-02-21T09:41:08;29.10;;;6.10;;
45033;SDS011;30771;47.988;-4.186;2024-02-21T09:43:45;24.67;;;5.63;;
45033;SDS011;30771;47.988;-4.186;2024-02-21T09:46:13;27.10;;;7.85;;
45033;SDS011;30771;47.988;-4.186;2024-02-21T09:51:34;32.25;;;6.50;;
45033;SDS011;30771;47.988;-4.186;2024-02-21T09:54:03;28.73;;;6.60;;
45033;SDS011;30771;47.988;-4.186;2024-02-21T09:56:41;29.67;;;6.78;;
45033;SDS011;30771;47.988;-4.186;2024-02-21T09:59:08;27.85;;;6.13;;
45033;SDS011;30771;47.988;-4.186;2024-02-21T10:01:36;29.33;;;5.38;;
45033;SDS011;30771;47.988;-4.186;2024-02-21T10:04:03;28.23;;;5.72;;
45033;SDS011;30771;47.988;-4.186;2024-02-21T10:06:31;30.33;;;5.40;;
45033;SDS011;30771;47.988;-4.186;2024-02-21T10:08:59;26.60;;;4.88;;
45033;SDS011;30771;47.988;-4.186;2024-02-21T10:11:26;22.60;;;5.57;;
45033;SDS011;30771;47.988;-4.186;2024-02-21T10:14:03;31.60;;;5.28;;
45033;SDS011;30771;47.988;-4.186;2024-02-21T10:16:33;32.00;;;5.68;;
45033;SDS011;30771;47.988;-4.186;2024-02-21T10:19:00;33.47;;;7.03;;
45033;SDS011;30771;47.988;-4.186;2024-02-21T10:21:27;37.50;;;6.35;;
45033;SDS011;30771;47.988;-4.186;2024-02-21T10:23:54;28.55;;;5.00;;
45033;SDS011;30771;47.988;-4.186;2024-02-21T10:26:21;29.10;;;5.10;;
45033;SDS011;30771;47.988;-4.186;2024-02-21T10:28:48;27.17;;;5.22;;
45033;SDS011;30771;47.988;-4.186;2024-02-21T10:31:25;39.40;;;6.15;;
45033;SDS011;30771;47.988;-4.186;2024-02-21T10:33:58;28.08;;;5.25;;
45033;SDS011;30771;47.988;-4.186;2024-02-21T10:36:32;31.27;;;5.47;;
45033;SDS011;30771;47.988;-4.186;2024-02-21T10:38:59;26.35;;;5.60;;
45033;SDS011;30771;47.988;-4.186;2024-02-21T10:41:26;29.20;;;5.70;;
45033;SDS011;30771;47.988;-4.186;2024-02-21T10:43:54;28.45;;;5.53;;
45033;SDS011;30771;47.988;-4.186;2024-02-21T10:46:23;29.73;;;5.97;;
45033;SDS011;30771;47.988;-4.186;2024-02-21T10:49:22;32.65;;;5.75;;
45033;SDS011;30771;47.988;-4.186;2024-02-21T10:51:44;36.67;;;6.50;;
45033;SDS011;30771;47.988;-4.186;2024-02-21T10:54:29;33.75;;;6.53;;
45033;SDS011;30771;47.988;-4.186;2024-02-21T10:57:10;33.80;;;5.35;;
45033;SDS011;30771;47.988;-4.186;2024-02-21T10:59:37;24.05;;;5.25;;
45033;SDS011;30771;47.988;-4.186;2024-02-21T11:02:06;27.75;;;4.85;;
45033;SDS011;30771;47.988;-4.186;2024-02-21T11:04:33;22.48;;;5.53;;
45033;SDS011;30771;47.988;-4.186;2024-02-21T11:07:05;29.13;;;5.50;;
45033;SDS011;30771;47.988;-4.186;2024-02-21T11:09:36;31.55;;;5.75;;
45033;SDS011;30771;47.988;-4.186;2024-02-21T11:12:04;45.55;;;6.22;;
45033;SDS011;30771;47.988;-4.186;2024-02-21T11:14:33;30.25;;;5.60;;
45033;SDS011;30771;47.988;-4.186;2024-02-21T11:17:14;35.20;;;7.13;;
45033;SDS011;30771;47.988;-4.186;2024-02-21T11:19:44;39.70;;;9.00;;
45033;SDS011;30771;47.988;-4.186;2024-02-21T11:22:18;46.08;;;8.60;;
45033;SDS011;30771;47.988;-4.186;2024-02-21T11:24:49;38.85;;;8.25;;
45033;SDS011;30771;47.988;-4.186;2024-02-21T11:27:16;52.30;;;15.77;;
45033;SDS011;30771;47.988;-4.186;2024-02-21T11:29:47;65.80;;;20.48;;
45033;SDS011;30771;47.988;-4.186;2024-02-21T11:32:19;53.65;;;8.07;;
45033;SDS011;30771;47.988;-4.186;2024-02-21T11:37:30;56.90;;;11.65;;
45033;SDS011;30771;47.988;-4.186;2024-02-21T11:40:00;56.00;;;9.13;;
45033;SDS011;30771;47.988;-4.186;2024-02-21T11:42:28;49.55;;;8.82;;
45033;SDS011;30771;47.988;-4.186;2024-02-21T11:44:59;58.55;;;13.02;;
45033;SDS011;30771;47.988;-4.186;2024-02-21T11:47:28;53.80;;;9.18;;
45033;SDS011;30771;47.988;-4.186;2024-02-21T11:49:55;41.15;;;8.00;;
45033;SDS011;30771;47.988;-4.186;2024-02-21T11:52:23;48.42;;;10.38;;
45033;SDS011;30771;47.988;-4.186;2024-02-21T11:54:53;28.98;;;5.10;;
45033;SDS011;30771;47.988;-4.186;2024-02-21T11:57:21;43.78;;;7.85;;
45033;SDS011;30771;47.988;-4.186;2024-02-21T11:59:48;42.38;;;7.00;;
45033;SDS011;30771;47.988;-4.186;2024-02-21T12:02:19;43.22;;;9.85;;
45033;SDS011;30771;47.988;-4.186;2024-02-21T12:04:45;35.85;;;8.85;;
45033;SDS011;30771;47.988;-4.186;2024-02-21T12:07:12;47.33;;;9.77;;
45033;SDS011;30771;47.988;-4.186;2024-02-21T12:09:41;31.80;;;6.57;;
45033;SDS011;30771;47.988;-4.186;2024-02-21T12:12:08;36.80;;;8.50;;
45033;SDS011;30771;47.988;-4.186;2024-02-21T12:14:35;61.88;;;22.23;;
45033;SDS011;30771;47.988;-4.186;2024-02-21T12:17:02;51.30;;;20.33;;
45033;SDS011;30771;47.988;-4.186;2024-02-21T12:19:32;57.15;;;19.27;;
45033;SDS011;30771;47.988;-4.186;2024-02-21T12:22:00;41.42;;;6.35;;
45033;SDS011;30771;47.988;-4.186;2024-02-21T12:24:28;41.92;;;10.82;;
45033;SDS011;30771;47.988;-4.186;2024-02-21T12:26:55;32.83;;;7.22;;
45033;SDS011;30771;47.988;-4.186;2024-02-21T12:29:23;30.45;;;8.35;;
45033;SDS011;30771;47.988;-4.186;2024-02-21T12:31:51;40.08;;;7.57;;
45033;SDS011;30771;47.988;-4.186;2024-02-21T12:34:18;36.10;;;7.50;;
45033;SDS011;30771;47.988;-4.186;2024-02-21T12:37:01;35.50;;;8.48;;
45033;SDS011;30771;47.988;-4.186;2024-02-21T12:39:29;28.20;;;5.18;;
45033;SDS011;30771;47.988;-4.186;2024-02-21T12:41:56;30.52;;;5.05;;
45033;SDS011;30771;47.988;-4.186;2024-02-21T12:44:23;38.25;;;5.78;;
45033;SDS011;30771;47.988;-4.186;2024-02-21T12:46:50;39.60;;;6.07;;
45033;SDS011;30771;47.988;-4.186;2024-02-21T12:49:21;31.50;;;6.25;;
45033;SDS011;30771;47.988;-4.186;2024-02-21T12:51:48;45.88;;;6.55;;
45033;SDS011;30771;47.988;-4.186;2024-02-21T12:54:15;51.67;;;15.45;;
45033;SDS011;30771;47.988;-4.186;2024-02-21T12:56:41;65.45;;;19.98;;
45033;SDS011;30771;47.988;-4.186;2024-02-21T12:59:08;32.88;;;5.28;;
45033;SDS011;30771;47.988;-4.186;2024-02-21T13:01:37;36.90;;;5.30;;
45033;SDS011;30771;47.988;-4.186;2024-02-21T13:04:05;36.10;;;4.80;;
45033;SDS011;30771;47.988;-4.186;2024-02-21T13:06:32;36.30;;;5.95;;
45033;SDS011;30771;47.988;-4.186;2024-02-21T13:08:59;43.35;;;6.28;;
45033;SDS011;30771;47.988;-4.186;2024-02-21T13:11:30;49.00;;;5.25;;
45033;SDS011;30771;47.988;-4.186;2024-02-21T13:13:58;37.83;;;5.38;;
45033;SDS011;30771;47.988;-4.186;2024-02-21T13:16:25;28.95;;;3.88;;
45033;SDS011;30771;47.988;-4.186;2024-02-21T13:18:53;44.88;;;5.35;;
45033;SDS011;30771;47.988;-4.186;2024-02-21T13:21:20;34.17;;;4.13;;
45033;SDS011;30771;47.988;-4.186;2024-02-21T13:23:46;35.47;;;4.20;;
45033;SDS011;30771;47.988;-4.186;2024-02-21T13:26:13;46.42;;;5.45;;
45033;SDS011;30771;47.988;-4.186;2024-02-21T13:28:40;31.45;;;4.25;;
45033;SDS011;30771;47.988;-4.186;2024-02-21T13:31:07;24.60;;;3.53;;
45033;SDS011;30771;47.988;-4.186;2024-02-21T13:33:34;30.30;;;3.78;;
45033;SDS011;30771;47.988;-4.186;2024-02-21T13:36:03;29.42;;;4.47;;
45033;SDS011;30771;47.988;-4.186;2024-02-21T13:38:30;23.25;;;4.03;;
45033;SDS011;30771;47.988;-4.186;2024-02-21T13:40:56;34.20;;;4.10;;
45033;SDS011;30771;47.988;-4.186;2024-02-21T13:43:23;26.23;;;4.65;;
45033;SDS011;30771;47.988;-4.186;2024-02-21T13:45:59;31.48;;;4.03;;
45033;SDS011;30771;47.988;-4.186;2024-02-21T13:48:29;27.40;;;4.07;;
45033;SDS011;30771;47.988;-4.186;2024-02-21T13:50:56;25.42;;;3.50;;
45033;SDS011;30771;47.988;-4.186;2024-02-21T13:53:23;26.85;;;3.97;;
45033;SDS011;30771;47.988;-4.186;2024-02-21T13:55:50;31.88;;;3.97;;
45033;SDS011;30771;47.988;-4.186;2024-02-21T13:58:17;27.92;;;3.95;;
45033;SDS011;30771;47.988;-4.186;2024-02-21T14:00:44;25.00;;;3.42;;
45033;SDS011;30771;47.988;-4.186;2024-02-21T14:03:11;27.88;;;3.10;;
45033;SDS011;30771;47.988;-4.186;2024-02-21T14:05:38;23.13;;;3.42;;
45033;SDS011;30771;47.988;-4.186;2024-02-21T14:08:08;19.90;;;3.20;;
45033;SDS011;30771;47.988;-4.186;2024-02-21T14:10:35;22.52;;;3.03;;
45033;SDS011;30771;47.988;-4.186;2024-02-21T14:13:03;19.90;;;2.67;;
45033;SDS011;30771;47.988;-4.186;2024-02-21T14:15:30;18.10;;;3.05;;
45033;SDS011;30771;47.988;-4.186;2024-02-21T14:17:57;22.20;;;3.03;;
45033;SDS011;30771;47.988;-4.186;2024-02-21T14:20:24;19.27;;;2.47;;
45033;SDS011;30771;47.988;-4.186;2024-02-21T14:22:51;23.15;;;3.20;;
45033;SDS011;30771;47.988;-4.186;2024-02-21T14:25:18;30.13;;;3.10;;
45033;SDS011;30771;47.988;-4.186;2024-02-21T14:27:45;19.08;;;3.03;;
45033;SDS011;30771;47.988;-4.186;2024-02-21T14:30:11;23.90;;;2.65;;
45033;SDS011;30771;47.988;-4.186;2024-02-21T14:32:39;21.35;;;3.10;;